createdAt,value
2022-12-29T00:00:34.386Z,8.6
2022-12-29T00:01:34.951Z,8.4
2022-12-29T00:02:34.568Z,7.8
2022-12-29T00:03:34.825Z,9.4
2022-12-29T00:04:34.137Z,9.2
2022-12-29T00:05:34.708Z,8.9
2022-12-29T00:06:34.105Z,9.0
2022-12-29T00:07:34.804Z,7.9
2022-12-29T00:08:34.586Z,8.5
2022-12-29T00:09:34.837Z,7.7
2022-12-29T00:10:34.238Z,8.1
2022-12-29T00:11:34.118Z,7.9
2022-12-29T00:12:34.820Z,7.4
2022-12-29T00:13:34.145Z,8.1
2022-12-29T00:14:34.423Z,6.8
2022-12-29T00:15:35.942Z,8.1
2022-12-29T00:16:35.198Z,8.5
2022-12-29T00:17:34.237Z,8.9
2022-12-29T00:18:34.040Z,8.9
2022-12-29T00:19:34.782Z,8.5
2022-12-29T00:20:35.215Z,8.0
2022-12-29T00:21:34.868Z,8.0
2022-12-29T00:22:34.707Z,8.4
2022-12-29T00:23:36.246Z,8.4
2022-12-29T00:24:34.300Z,8.5
2022-12-29T00:25:35.960Z,7.0
2022-12-29T00:26:34.334Z,9.8
2022-12-29T00:27:34.199Z,9.1
2022-12-29T00:28:34.022Z,7.5
2022-12-29T00:29:34.966Z,7.1
2022-12-29T00:30:35.621Z,7.8
2022-12-29T00:31:34.435Z,8.2
2022-12-29T00:32:34.127Z,8.7
2022-12-29T00:33:33.922Z,7.1
2022-12-29T00:34:35.024Z,7.6
2022-12-29T00:35:39.390Z,7.1
2022-12-29T00:36:36.696Z,8.4
2022-12-29T00:37:39.414Z,8.7
2022-12-29T00:38:37.712Z,8.1
2022-12-29T00:39:34.192Z,7.1
2022-12-29T00:40:34.839Z,7.8
2022-12-29T00:41:34.653Z,8.5
2022-12-29T00:42:34.483Z,8.3
2022-12-29T00:43:34.348Z,7.5
2022-12-29T00:44:34.143Z,7.3
2022-12-29T00:45:33.951Z,7.7
2022-12-29T00:46:35.669Z,7.7
2022-12-29T00:47:34.501Z,8.2
2022-12-29T00:48:34.302Z,7.6
2022-12-29T00:49:34.338Z,7.8
2022-12-29T00:50:33.944Z,8.2
2022-12-29T00:51:34.635Z,7.9
2022-12-29T00:52:34.477Z,7.9
2022-12-29T00:53:34.507Z,7.6
2022-12-29T00:54:35.376Z,8.9
2022-12-29T00:55:37.673Z,7.4
2022-12-29T00:56:34.694Z,7.5
2022-12-29T00:57:34.490Z,8.9
2022-12-29T00:58:34.211Z,8.4
2022-12-29T00:59:35.381Z,8.7
2022-12-29T01:00:34.355Z,7.5
2022-12-29T01:01:34.832Z,7.9
2022-12-29T01:02:34.956Z,7.8
2022-12-29T01:03:35.809Z,7.9
2022-12-29T01:04:34.507Z,7.5
2022-12-29T01:05:36.278Z,8.4
2022-12-29T01:06:35.050Z,7.8
2022-12-29T01:07:34.848Z,8.1
2022-12-29T01:08:34.951Z,8.0
2022-12-29T01:09:34.534Z,6.6
2022-12-29T01:10:34.414Z,7.6
2022-12-29T01:11:34.231Z,7.1
2022-12-29T01:12:34.779Z,8.0
2022-12-29T01:13:35.043Z,8.4
2022-12-29T01:14:34.515Z,7.1
2022-12-29T01:15:34.733Z,7.4
2022-12-29T01:16:34.529Z,9.0
2022-12-29T01:17:34.317Z,8.2
2022-12-29T01:18:34.167Z,6.6
2022-12-29T01:19:34.054Z,8.2
2022-12-29T01:20:34.702Z,7.3
2022-12-29T01:21:34.633Z,7.1
2022-12-29T01:22:34.369Z,7.8
2022-12-29T01:23:34.224Z,8.0
2022-12-29T01:24:34.057Z,8.4
2022-12-29T01:25:34.726Z,7.3
2022-12-29T01:26:34.284Z,7.4
2022-12-29T01:27:34.785Z,6.9
2022-12-29T01:28:34.663Z,7.7
2022-12-29T01:29:34.426Z,7.4
2022-12-29T01:30:34.957Z,7.5
2022-12-29T01:31:34.676Z,6.8
2022-12-29T01:32:34.300Z,7.0
2022-12-29T01:33:34.090Z,7.9
2022-12-29T01:34:34.364Z,6.6
2022-12-29T01:35:34.173Z,7.1
2022-12-29T01:36:33.990Z,6.6
2022-12-29T01:37:34.755Z,7.3
2022-12-29T01:38:35.283Z,6.6
2022-12-29T01:39:34.392Z,8.0
2022-12-29T01:40:34.210Z,6.8
2022-12-29T01:41:34.033Z,7.1
2022-12-29T01:42:34.717Z,6.9
2022-12-29T01:43:50.408Z,7.2
2022-12-29T01:44:48.573Z,7.7
2022-12-29T01:45:34.893Z,7.5
2022-12-29T01:46:41.604Z,6.7
2022-12-29T01:47:37.534Z,7.7
2022-12-29T01:48:34.513Z,7.5
2022-12-29T01:49:34.710Z,7.5
2022-12-29T01:50:37.332Z,7.2
2022-12-29T01:51:41.576Z,7.4
2022-12-29T01:52:38.372Z,7.2
2022-12-29T01:53:35.128Z,7.1
2022-12-29T01:54:36.984Z,7.0
2022-12-29T01:55:39.672Z,7.5
2022-12-29T01:56:34.163Z,7.3
2022-12-29T01:57:37.057Z,7.9
2022-12-29T01:58:36.485Z,6.7
2022-12-29T01:59:41.651Z,7.0
2022-12-29T02:00:34.712Z,7.5
2022-12-29T02:01:34.600Z,6.2
2022-12-29T02:02:34.420Z,7.1
2022-12-29T02:03:34.767Z,6.5
2022-12-29T02:04:36.987Z,7.0
2022-12-29T02:05:52.487Z,8.1
2022-12-29T02:06:41.285Z,7.1
2022-12-29T02:07:34.504Z,6.4
2022-12-29T02:08:34.114Z,7.0
2022-12-29T02:09:34.244Z,7.7
2022-12-29T02:10:34.723Z,7.5
2022-12-29T02:11:35.070Z,6.5
2022-12-29T02:12:34.606Z,6.7
2022-12-29T02:13:34.520Z,8.1
2022-12-29T02:14:34.207Z,7.3
2022-12-29T02:15:53.554Z,7.4
2022-12-29T02:16:48.698Z,8.2
2022-12-29T02:17:45.059Z,7.0
2022-12-29T02:18:39.257Z,7.1
2022-12-29T02:19:42.029Z,6.0
2022-12-29T02:20:53.604Z,7.0
2022-12-29T02:21:39.129Z,6.6
2022-12-29T02:22:51.966Z,7.4
2022-12-29T02:23:50.522Z,7.8
2022-12-29T02:24:42.025Z,7.2
2022-12-29T02:25:51.079Z,6.8
2022-12-29T02:26:39.122Z,6.2
2022-12-29T02:27:53.587Z,5.6
2022-12-29T02:28:38.797Z,6.8
2022-12-29T02:29:45.065Z,7.0
2022-12-29T02:30:38.319Z,7.0
2022-12-29T02:31:45.127Z,6.4
2022-12-29T02:32:38.985Z,7.1
2022-12-29T02:33:47.573Z,7.2
2022-12-29T02:34:51.973Z,7.4
2022-12-29T02:35:37.233Z,7.5
2022-12-29T02:36:54.539Z,6.9
2022-12-29T02:37:45.049Z,7.2
2022-12-29T02:38:48.036Z,6.0
2022-12-29T02:39:44.534Z,7.6
2022-12-29T02:40:51.704Z,6.7
2022-12-29T02:41:51.543Z,6.5
2022-12-29T02:42:42.034Z,6.4
2022-12-29T02:43:38.773Z,8.0
2022-12-29T02:44:38.361Z,7.3
2022-12-29T02:45:41.448Z,7.0
2022-12-29T02:46:35.990Z,6.8
2022-12-29T02:47:40.353Z,8.1
2022-12-29T02:48:38.868Z,6.7
2022-12-29T02:49:39.460Z,6.6
2022-12-29T02:50:42.091Z,6.4
2022-12-29T02:51:54.107Z,7.5
2022-12-29T02:52:38.908Z,6.3
2022-12-29T02:53:35.244Z,7.5
2022-12-29T02:54:35.644Z,7.0
2022-12-29T02:55:34.385Z,6.5
2022-12-29T02:56:34.212Z,7.3
2022-12-29T02:57:34.930Z,7.1
2022-12-29T02:58:34.845Z,6.2
2022-12-29T02:59:34.130Z,7.0
2022-12-29T03:00:35.890Z,7.0
2022-12-29T03:01:42.255Z,6.0
2022-12-29T03:02:51.285Z,8.2
2022-12-29T03:03:48.076Z,6.8
2022-12-29T03:04:39.001Z,6.8
2022-12-29T03:05:44.588Z,6.5
2022-12-29T03:06:57.053Z,6.8
2022-12-29T03:07:42.098Z,6.9
2022-12-29T03:08:45.041Z,6.4
2022-12-29T03:09:41.547Z,7.3
2022-12-29T03:10:38.816Z,7.2
2022-12-29T03:11:38.897Z,7.0
2022-12-29T03:12:39.310Z,7.1
2022-12-29T03:13:39.142Z,5.9
2022-12-29T03:14:38.941Z,7.3
2022-12-29T03:15:42.485Z,6.5
2022-12-29T03:16:42.191Z,6.3
2022-12-29T03:17:44.231Z,6.3
2022-12-29T03:18:39.359Z,6.3
2022-12-29T03:19:36.098Z,6.8
2022-12-29T03:20:39.307Z,5.9
2022-12-29T03:21:48.045Z,7.1
2022-12-29T03:22:36.540Z,6.1
2022-12-29T03:23:34.654Z,5.8
2022-12-29T03:24:38.548Z,6.3
2022-12-29T03:25:35.635Z,6.8
2022-12-29T03:26:35.531Z,6.0
2022-12-29T03:27:39.323Z,6.2
2022-12-29T03:28:50.385Z,6.5
2022-12-29T03:29:37.729Z,6.5
2022-12-29T03:30:35.406Z,6.6
2022-12-29T03:31:35.432Z,6.4
2022-12-29T03:32:36.267Z,5.8
2022-12-29T03:33:35.629Z,6.9
2022-12-29T03:34:34.998Z,6.7
2022-12-29T03:35:36.499Z,6.2
2022-12-29T03:36:38.961Z,6.8
2022-12-29T03:37:39.339Z,6.3
2022-12-29T03:38:48.513Z,5.8
2022-12-29T03:39:34.876Z,5.8
2022-12-29T03:40:34.730Z,6.8
2022-12-29T03:41:34.539Z,5.5
2022-12-29T03:42:35.095Z,6.5
2022-12-29T03:43:34.716Z,7.0
2022-12-29T03:44:38.300Z,6.5
2022-12-29T03:45:34.287Z,6.5
2022-12-29T03:46:34.573Z,6.9
2022-12-29T03:47:34.052Z,6.8
2022-12-29T03:48:34.711Z,5.9
2022-12-29T03:49:34.581Z,6.6
2022-12-29T03:50:34.405Z,6.7
2022-12-29T03:51:34.335Z,5.4
2022-12-29T03:52:34.373Z,6.5
2022-12-29T03:53:34.703Z,6.1
2022-12-29T03:54:34.614Z,6.2
2022-12-29T03:55:34.281Z,6.8
2022-12-29T03:56:34.127Z,5.7
2022-12-29T03:57:33.983Z,5.8
2022-12-29T03:58:34.944Z,6.3
2022-12-29T03:59:34.663Z,6.2
2022-12-29T04:00:34.373Z,7.5
2022-12-29T04:01:34.361Z,6.2
2022-12-29T04:02:34.292Z,7.0
2022-12-29T04:03:34.857Z,6.6
2022-12-29T04:04:34.522Z,6.2
2022-12-29T04:05:34.008Z,6.3
2022-12-29T04:06:34.631Z,5.6
2022-12-29T04:07:34.110Z,5.9
2022-12-29T04:08:34.687Z,6.9
2022-12-29T04:09:34.158Z,6.5
2022-12-29T04:10:34.213Z,6.5
2022-12-29T04:11:34.771Z,6.4
2022-12-29T04:12:34.428Z,6.0
2022-12-29T04:13:34.662Z,7.1
2022-12-29T04:14:34.468Z,6.3
2022-12-29T04:15:34.454Z,7.0
2022-12-29T04:16:34.171Z,6.8
2022-12-29T04:17:33.996Z,6.2
2022-12-29T04:18:34.726Z,6.1
2022-12-29T04:19:34.539Z,6.3
2022-12-29T04:20:34.429Z,6.8
2022-12-29T04:21:34.145Z,7.1
2022-12-29T04:22:34.014Z,5.5
2022-12-29T04:23:36.008Z,5.5
2022-12-29T04:24:33.925Z,7.5
2022-12-29T04:25:34.216Z,7.6
2022-12-29T04:26:34.624Z,7.3
2022-12-29T04:27:33.994Z,6.9
2022-12-29T04:28:34.913Z,4.9
2022-12-29T04:29:34.478Z,6.2
2022-12-29T04:30:34.366Z,6.7
2022-12-29T04:31:34.192Z,6.5
2022-12-29T04:32:33.955Z,5.1
2022-12-29T04:33:33.939Z,7.1
2022-12-29T04:34:34.101Z,6.1
2022-12-29T04:35:34.814Z,5.4
2022-12-29T04:36:34.649Z,5.1
2022-12-29T04:37:34.423Z,5.9
2022-12-29T04:38:34.255Z,6.3
2022-12-29T04:39:34.054Z,6.2
2022-12-29T04:40:34.011Z,5.5
2022-12-29T04:41:34.581Z,5.1
2022-12-29T04:42:33.956Z,6.8
2022-12-29T04:43:34.191Z,5.8
2022-12-29T04:44:34.023Z,5.5
2022-12-29T04:45:34.732Z,5.3
2022-12-29T04:46:34.615Z,6.1
2022-12-29T04:47:33.951Z,6.9
2022-12-29T04:48:34.698Z,5.9
2022-12-29T04:49:34.420Z,5.0
2022-12-29T04:50:34.738Z,6.3
2022-12-29T04:51:34.532Z,5.4
2022-12-29T04:52:34.686Z,6.5
2022-12-29T04:53:34.165Z,7.2
2022-12-29T04:54:34.489Z,6.6
2022-12-29T04:55:34.329Z,5.9
2022-12-29T04:56:34.024Z,7.0
2022-12-29T04:57:34.972Z,6.0
2022-12-29T04:58:36.147Z,6.4
2022-12-29T04:59:34.437Z,5.3
2022-12-29T05:00:34.260Z,5.5
2022-12-29T05:01:34.274Z,5.8
2022-12-29T05:02:34.126Z,5.3
2022-12-29T05:03:34.856Z,5.6
2022-12-29T05:04:34.367Z,5.8
2022-12-29T05:05:34.178Z,6.3
2022-12-29T05:06:34.035Z,6.0
2022-12-29T05:07:34.794Z,6.2
2022-12-29T05:08:34.665Z,6.3
2022-12-29T05:09:34.523Z,6.0
2022-12-29T05:10:34.254Z,5.5
2022-12-29T05:11:34.725Z,6.0
2022-12-29T05:12:34.694Z,6.1
2022-12-29T05:13:34.171Z,5.1
2022-12-29T05:14:34.019Z,4.3
2022-12-29T05:15:34.612Z,5.4
2022-12-29T05:16:34.511Z,5.8
2022-12-29T05:17:34.244Z,5.3
2022-12-29T05:18:34.140Z,5.0
2022-12-29T05:19:33.960Z,5.5
2022-12-29T05:20:34.701Z,5.0
2022-12-29T05:21:34.487Z,6.5
2022-12-29T05:22:34.330Z,5.8
2022-12-29T05:23:34.202Z,5.1
2022-12-29T05:24:34.360Z,5.8
2022-12-29T05:25:34.179Z,5.6
2022-12-29T05:26:34.193Z,6.6
2022-12-29T05:27:34.269Z,6.0
2022-12-29T05:28:34.150Z,5.5
2022-12-29T05:29:34.462Z,7.0
2022-12-29T05:30:34.555Z,6.1
2022-12-29T05:31:34.511Z,6.6
2022-12-29T05:32:34.183Z,4.9
2022-12-29T05:33:34.135Z,5.5
2022-12-29T05:34:33.943Z,5.2
2022-12-29T05:35:34.574Z,5.4
2022-12-29T05:36:37.703Z,7.6
2022-12-29T05:37:34.237Z,6.5
2022-12-29T05:38:34.322Z,5.8
2022-12-29T05:39:34.775Z,5.4
2022-12-29T05:40:34.634Z,5.6
2022-12-29T05:41:34.634Z,4.8
2022-12-29T05:42:34.367Z,4.8
2022-12-29T05:43:34.337Z,6.4
2022-12-29T05:44:34.322Z,6.4
2022-12-29T05:45:35.625Z,6.5
2022-12-29T05:46:34.031Z,6.3
2022-12-29T05:47:34.718Z,5.2
2022-12-29T05:48:37.899Z,5.4
2022-12-29T05:49:34.299Z,6.0
2022-12-29T05:50:34.086Z,5.9
2022-12-29T05:51:33.957Z,5.9
2022-12-29T05:52:34.729Z,6.1
2022-12-29T05:53:34.556Z,5.9
2022-12-29T05:54:34.319Z,6.2
2022-12-29T05:55:34.476Z,5.4
2022-12-29T05:56:33.968Z,5.0
2022-12-29T05:57:34.680Z,6.3
2022-12-29T05:58:34.488Z,5.2
2022-12-29T05:59:34.286Z,5.0
2022-12-29T06:00:34.107Z,5.3
2022-12-29T06:01:34.028Z,5.9
2022-12-29T06:02:34.914Z,6.5
2022-12-29T06:03:35.496Z,6.1
2022-12-29T06:04:34.285Z,5.1
2022-12-29T06:05:34.120Z,6.4
2022-12-29T06:06:33.921Z,6.6
2022-12-29T06:07:34.653Z,6.0
2022-12-29T06:08:34.541Z,5.0
2022-12-29T06:09:34.628Z,6.5
2022-12-29T06:10:34.502Z,5.1
2022-12-29T06:11:34.310Z,4.6
2022-12-29T06:12:34.125Z,5.3
2022-12-29T06:13:33.973Z,5.2
2022-12-29T06:14:34.720Z,5.0
2022-12-29T06:15:34.865Z,4.6
2022-12-29T06:16:34.388Z,5.9
2022-12-29T06:17:34.140Z,6.1
2022-12-29T06:18:34.075Z,5.6
2022-12-29T06:19:34.642Z,5.4
2022-12-29T06:20:34.005Z,5.5
2022-12-29T06:21:34.652Z,5.2
2022-12-29T06:22:34.500Z,6.3
2022-12-29T06:23:33.854Z,5.8
2022-12-29T06:24:34.623Z,5.9
2022-12-29T06:25:33.968Z,6.3
2022-12-29T06:26:34.641Z,5.7
2022-12-29T06:27:34.452Z,6.1
2022-12-29T06:28:34.306Z,4.6
2022-12-29T06:29:34.251Z,5.6
2022-12-29T06:30:33.944Z,4.7
2022-12-29T06:31:34.731Z,5.0
2022-12-29T06:32:34.472Z,5.1
2022-12-29T06:33:34.663Z,5.6
2022-12-29T06:34:34.596Z,5.2
2022-12-29T06:35:34.315Z,4.4
2022-12-29T06:36:34.186Z,5.5
2022-12-29T06:37:34.020Z,4.8
2022-12-29T06:38:34.614Z,4.4
2022-12-29T06:39:34.476Z,5.4
2022-12-29T06:40:34.362Z,5.0
2022-12-29T06:41:34.145Z,5.2
2022-12-29T06:42:33.964Z,5.5
2022-12-29T06:43:34.665Z,5.2
2022-12-29T06:44:34.500Z,5.5
2022-12-29T06:45:34.536Z,5.2
2022-12-29T06:46:34.120Z,6.2
2022-12-29T06:47:34.743Z,6.0
2022-12-29T06:48:34.174Z,5.8
2022-12-29T06:49:34.018Z,5.2
2022-12-29T06:50:35.084Z,4.7
2022-12-29T06:51:34.584Z,4.8
2022-12-29T06:52:34.346Z,5.2
2022-12-29T06:53:34.205Z,4.9
2022-12-29T06:54:33.952Z,5.1
2022-12-29T06:55:34.710Z,5.0
2022-12-29T06:56:34.492Z,5.9
2022-12-29T06:57:34.669Z,5.4
2022-12-29T06:58:34.135Z,6.4
2022-12-29T06:59:34.043Z,6.2
2022-12-29T07:00:34.699Z,5.4
2022-12-29T07:01:34.608Z,4.4
2022-12-29T07:02:34.481Z,4.0
2022-12-29T07:03:34.198Z,5.1
2022-12-29T07:04:34.286Z,6.1
2022-12-29T07:05:34.162Z,5.9
2022-12-29T07:06:34.082Z,6.0
2022-12-29T07:07:34.906Z,4.5
2022-12-29T07:08:34.571Z,4.5
2022-12-29T07:09:34.350Z,4.2
2022-12-29T07:10:34.192Z,4.5
2022-12-29T07:11:33.997Z,4.0
2022-12-29T07:12:34.693Z,4.1
2022-12-29T07:13:34.757Z,4.8
2022-12-29T07:14:40.766Z,5.2
2022-12-29T07:15:35.864Z,5.5
2022-12-29T07:16:34.477Z,5.4
2022-12-29T07:17:34.147Z,5.2
2022-12-29T07:18:34.079Z,4.7
2022-12-29T07:19:34.735Z,4.3
2022-12-29T07:20:34.585Z,5.0
2022-12-29T07:21:34.472Z,5.0
2022-12-29T07:22:34.212Z,5.2
2022-12-29T07:23:34.088Z,5.1
2022-12-29T07:24:34.715Z,5.5
2022-12-29T07:25:34.683Z,6.4
2022-12-29T07:26:36.436Z,5.2
2022-12-29T07:27:34.163Z,5.6
2022-12-29T07:28:35.272Z,4.4
2022-12-29T07:29:36.778Z,4.6
2022-12-29T07:30:36.475Z,5.0
2022-12-29T07:31:34.474Z,4.2
2022-12-29T07:32:34.537Z,5.2
2022-12-29T07:33:34.002Z,5.2
2022-12-29T07:34:34.758Z,4.2
2022-12-29T07:35:34.631Z,5.7
2022-12-29T07:36:35.010Z,4.7
2022-12-29T07:37:34.558Z,4.1
2022-12-29T07:38:34.390Z,4.9
2022-12-29T07:39:34.205Z,5.2
2022-12-29T07:40:33.989Z,4.3
2022-12-29T07:41:34.878Z,5.0
2022-12-29T07:42:34.528Z,4.9
2022-12-29T07:43:34.698Z,5.1
2022-12-29T07:44:34.599Z,4.5
2022-12-29T07:45:34.532Z,4.7
2022-12-29T07:46:55.623Z,5.4
2022-12-29T07:47:34.101Z,5.7
2022-12-29T07:48:33.880Z,5.0
2022-12-29T07:49:34.545Z,4.7
2022-12-29T07:50:34.663Z,4.2
2022-12-29T07:51:34.232Z,5.7
2022-12-29T07:52:34.096Z,4.2
2022-12-29T07:53:34.782Z,4.8
2022-12-29T07:54:34.599Z,5.0
2022-12-29T07:55:34.660Z,4.3
2022-12-29T07:56:34.697Z,5.2
2022-12-29T07:57:34.666Z,5.4
2022-12-29T07:58:34.341Z,5.7
2022-12-29T07:59:34.185Z,3.4
2022-12-29T08:00:34.025Z,4.6
2022-12-29T08:01:34.693Z,5.3
2022-12-29T08:02:34.505Z,4.5
2022-12-29T08:03:34.262Z,5.1
2022-12-29T08:04:34.125Z,4.9
2022-12-29T08:05:34.885Z,4.9
2022-12-29T08:06:34.760Z,4.7
2022-12-29T08:07:36.221Z,4.4
2022-12-29T08:08:34.242Z,4.9
2022-12-29T08:09:34.225Z,4.5
2022-12-29T08:10:33.905Z,5.5
2022-12-29T08:11:34.616Z,4.6
2022-12-29T08:12:33.973Z,5.9
2022-12-29T08:13:34.628Z,3.9
2022-12-29T08:14:34.404Z,4.2
2022-12-29T08:15:34.334Z,4.4
2022-12-29T08:16:34.380Z,3.8
2022-12-29T08:17:34.807Z,5.2
2022-12-29T08:18:34.592Z,4.5
2022-12-29T08:19:35.020Z,6.0
2022-12-29T08:20:34.692Z,6.8
2022-12-29T08:21:34.501Z,5.0
2022-12-29T08:22:34.298Z,4.6
2022-12-29T08:23:34.080Z,5.0
2022-12-29T08:24:33.964Z,5.2
2022-12-29T08:25:34.571Z,4.8
2022-12-29T08:26:34.976Z,4.9
2022-12-29T08:27:34.203Z,5.2
2022-12-29T08:28:34.050Z,4.8
2022-12-29T08:29:34.795Z,5.4
2022-12-29T08:30:35.651Z,4.4
2022-12-29T08:31:34.548Z,4.8
2022-12-29T08:32:34.203Z,5.2
2022-12-29T08:33:34.068Z,4.3
2022-12-29T08:34:34.873Z,4.2
2022-12-29T08:35:34.531Z,4.6
2022-12-29T08:36:34.327Z,3.8
2022-12-29T08:37:34.161Z,5.2
2022-12-29T08:38:33.926Z,5.4
2022-12-29T08:39:34.691Z,4.9
2022-12-29T08:40:34.504Z,4.2
2022-12-29T08:41:34.378Z,5.6
2022-12-29T08:42:34.116Z,4.2
2022-12-29T08:43:34.025Z,5.2
2022-12-29T08:44:34.666Z,4.8
2022-12-29T08:45:34.552Z,4.8
2022-12-29T08:46:34.338Z,4.3
2022-12-29T08:47:34.095Z,5.2
2022-12-29T08:48:33.883Z,4.3
2022-12-29T08:49:34.576Z,5.2
2022-12-29T08:50:34.460Z,3.4
2022-12-29T08:51:34.284Z,5.2
2022-12-29T08:52:34.118Z,5.3
2022-12-29T08:53:34.219Z,7.2
2022-12-29T08:54:34.524Z,5.9
2022-12-29T08:55:34.307Z,5.0
2022-12-29T08:56:34.224Z,5.0
2022-12-29T08:57:33.980Z,5.1
2022-12-29T08:58:34.761Z,4.9
2022-12-29T08:59:34.551Z,7.5
2022-12-29T09:00:34.651Z,6.7
2022-12-29T09:01:34.356Z,7.4
2022-12-29T09:02:34.350Z,8.5
2022-12-29T09:04:13.639Z,8.0
2022-12-29T09:04:34.332Z,7.4
2022-12-29T09:05:34.730Z,7.4
2022-12-29T09:06:39.893Z,6.4
2022-12-29T09:07:34.398Z,5.9
2022-12-29T09:08:34.234Z,5.9
2022-12-29T09:09:34.188Z,6.5
2022-12-29T09:10:34.755Z,6.2
2022-12-29T09:11:34.235Z,6.6
2022-12-29T09:12:36.652Z,6.5
2022-12-29T09:13:34.661Z,7.3
2022-12-29T09:14:33.968Z,6.4
2022-12-29T09:15:34.701Z,6.9
2022-12-29T09:16:34.643Z,5.2
2022-12-29T09:17:34.303Z,5.6
2022-12-29T09:18:34.328Z,5.6
2022-12-29T09:19:33.974Z,5.8
2022-12-29T09:20:34.785Z,6.5
2022-12-29T09:21:34.454Z,5.8
2022-12-29T09:22:34.578Z,4.7
2022-12-29T09:23:34.060Z,5.3
2022-12-29T09:24:34.760Z,5.4
2022-12-29T09:25:34.597Z,5.8
2022-12-29T09:26:34.412Z,5.3
2022-12-29T09:27:34.303Z,5.1
2022-12-29T09:28:34.159Z,5.5
2022-12-29T09:29:34.737Z,5.0
2022-12-29T09:30:34.574Z,5.6
2022-12-29T09:31:34.433Z,4.7
2022-12-29T09:32:36.037Z,6.3
2022-12-29T09:33:34.218Z,6.0
2022-12-29T09:34:34.882Z,6.4
2022-12-29T09:35:34.533Z,6.0
2022-12-29T09:36:34.412Z,6.2
2022-12-29T09:37:34.255Z,6.5
2022-12-29T09:38:34.027Z,6.9
2022-12-29T09:39:34.667Z,6.0
2022-12-29T09:40:34.823Z,5.6
2022-12-29T09:41:45.063Z,6.5
2022-12-29T09:42:42.614Z,7.7
2022-12-29T09:43:51.990Z,6.0
2022-12-29T09:44:42.553Z,7.3
2022-12-29T09:45:42.041Z,5.9
2022-12-29T09:46:39.296Z,5.7
2022-12-29T09:47:34.380Z,6.3
2022-12-29T09:48:39.152Z,6.9
2022-12-29T09:49:51.843Z,6.4
2022-12-29T09:50:35.469Z,5.8
2022-12-29T09:51:37.040Z,5.8
2022-12-29T09:52:39.347Z,7.1
2022-12-29T09:53:42.656Z,7.1
2022-12-29T09:54:41.559Z,5.6
2022-12-29T09:55:38.918Z,7.4
2022-12-29T09:56:34.136Z,6.0
2022-12-29T09:57:38.847Z,7.0
2022-12-29T09:58:45.659Z,6.5
2022-12-29T09:59:39.100Z,6.9
2022-12-29T10:00:48.648Z,7.1
2022-12-29T10:01:42.169Z,6.0
2022-12-29T10:02:42.237Z,5.1
2022-12-29T10:03:45.130Z,6.1
2022-12-29T10:04:34.004Z,6.4
2022-12-29T10:05:52.490Z,6.4
2022-12-29T10:06:56.584Z,6.7
2022-12-29T10:07:40.812Z,6.4
2022-12-29T10:08:39.691Z,5.9
2022-12-29T10:09:39.369Z,7.2
2022-12-29T10:10:39.050Z,6.0
2022-12-29T10:11:47.588Z,6.2
2022-12-29T10:12:42.045Z,6.0
2022-12-29T10:13:38.949Z,5.8
2022-12-29T10:14:52.051Z,7.0
2022-12-29T10:15:51.126Z,7.0
2022-12-29T10:16:42.141Z,6.7
2022-12-29T10:17:39.575Z,6.5
2022-12-29T10:18:54.071Z,7.3
2022-12-29T10:19:42.079Z,7.1
2022-12-29T10:20:47.589Z,6.5
2022-12-29T10:21:50.606Z,7.0
2022-12-29T10:22:48.078Z,7.1
2022-12-29T10:23:45.893Z,6.6
2022-12-29T10:24:34.970Z,6.9
2022-12-29T10:25:37.150Z,6.8
2022-12-29T10:26:37.923Z,6.1
2022-12-29T10:27:34.993Z,5.7
2022-12-29T10:28:39.345Z,6.7
2022-12-29T10:29:37.500Z,6.0
2022-12-29T10:30:34.266Z,6.5
2022-12-29T10:31:43.052Z,7.7
2022-12-29T10:32:41.567Z,6.8
2022-12-29T10:33:39.199Z,6.5
2022-12-29T10:34:38.163Z,7.2
2022-12-29T10:35:35.304Z,6.3
2022-12-29T10:36:37.884Z,6.0
2022-12-29T10:37:53.291Z,7.0
2022-12-29T10:38:42.087Z,6.7
2022-12-29T10:39:38.544Z,6.9
2022-12-29T10:40:41.648Z,7.1
2022-12-29T10:41:45.582Z,7.4
2022-12-29T10:42:36.275Z,6.6
2022-12-29T10:43:37.410Z,6.6
2022-12-29T10:44:34.279Z,6.5
2022-12-29T10:45:34.139Z,5.7
2022-12-29T10:46:35.862Z,7.3
2022-12-29T10:47:36.495Z,5.9
2022-12-29T10:48:34.714Z,7.1
2022-12-29T10:49:37.198Z,5.7
2022-12-29T10:50:34.535Z,6.1
2022-12-29T10:51:37.606Z,6.2
2022-12-29T10:52:34.958Z,7.2
2022-12-29T10:53:44.962Z,6.8
2022-12-29T10:54:49.976Z,7.1
2022-12-29T10:55:36.433Z,5.9
2022-12-29T10:56:39.182Z,6.2
2022-12-29T10:57:36.678Z,6.2
2022-12-29T10:58:35.223Z,6.5
2022-12-29T10:59:35.734Z,6.4
2022-12-29T11:00:34.540Z,6.2
2022-12-29T11:01:37.814Z,6.7
2022-12-29T11:02:54.193Z,7.3
2022-12-29T11:03:39.113Z,6.8
2022-12-29T11:04:47.597Z,5.7
2022-12-29T11:05:56.314Z,6.0
2022-12-29T11:06:34.617Z,5.7
2022-12-29T11:07:34.493Z,6.2
2022-12-29T11:08:36.391Z,5.9
2022-12-29T11:09:42.569Z,6.0
2022-12-29T11:10:38.259Z,5.2
2022-12-29T11:11:35.576Z,6.2
2022-12-29T11:12:34.449Z,5.4
2022-12-29T11:13:39.210Z,6.5
2022-12-29T11:14:34.088Z,6.6
2022-12-29T11:15:42.088Z,6.7
2022-12-29T11:16:34.669Z,6.4
2022-12-29T11:17:52.586Z,6.2
2022-12-29T11:18:36.772Z,7.4
2022-12-29T11:19:40.469Z,6.7
2022-12-29T11:20:35.898Z,7.1
2022-12-29T11:21:36.162Z,6.4
2022-12-29T11:22:33.981Z,6.2
2022-12-29T11:23:38.491Z,6.2
2022-12-29T11:24:39.346Z,6.8
2022-12-29T11:25:34.305Z,5.3
2022-12-29T11:26:34.977Z,6.3
2022-12-29T11:27:33.959Z,5.6
2022-12-29T11:28:34.764Z,6.0
2022-12-29T11:29:38.437Z,6.0
2022-12-29T11:30:34.298Z,7.1
2022-12-29T11:31:40.869Z,7.1
2022-12-29T11:32:33.937Z,7.2
2022-12-29T11:33:35.800Z,6.4
2022-12-29T11:34:35.818Z,6.4
2022-12-29T11:35:35.975Z,6.3
2022-12-29T11:36:34.625Z,5.8
2022-12-29T11:37:38.216Z,6.4
2022-12-29T11:38:36.395Z,6.2
2022-12-29T11:39:37.952Z,5.5
2022-12-29T11:40:38.506Z,5.9
2022-12-29T11:41:34.623Z,6.6
2022-12-29T11:42:41.793Z,5.1
2022-12-29T11:43:36.965Z,5.6
2022-12-29T11:44:37.349Z,6.2
2022-12-29T11:45:35.202Z,6.0
2022-12-29T11:46:36.523Z,5.5
2022-12-29T11:47:34.070Z,5.4
2022-12-29T11:48:41.191Z,5.5
2022-12-29T11:49:34.394Z,6.1
2022-12-29T11:50:35.941Z,6.0
2022-12-29T11:51:43.899Z,6.1
2022-12-29T11:52:36.450Z,5.0
2022-12-29T11:53:38.989Z,6.3
2022-12-29T11:54:36.667Z,6.4
2022-12-29T11:55:34.624Z,5.1
2022-12-29T11:56:41.708Z,5.6
2022-12-29T11:57:34.434Z,5.2
2022-12-29T11:58:35.442Z,5.2
2022-12-29T11:59:39.906Z,4.8
2022-12-29T12:00:36.133Z,6.5
2022-12-29T12:01:36.425Z,5.7
2022-12-29T12:02:43.506Z,5.4
2022-12-29T12:03:36.591Z,6.4
2022-12-29T12:04:36.627Z,5.6
2022-12-29T12:05:39.895Z,6.4
2022-12-29T12:06:36.470Z,6.1
2022-12-29T12:07:39.396Z,5.6
2022-12-29T12:08:37.005Z,5.2
2022-12-29T12:09:42.107Z,6.2
2022-12-29T12:10:43.822Z,5.6
2022-12-29T12:11:38.417Z,5.7
2022-12-29T12:12:48.119Z,4.6
2022-12-29T12:13:40.410Z,5.9
2022-12-29T12:14:46.801Z,5.5
2022-12-29T12:15:44.949Z,6.6
2022-12-29T12:16:38.551Z,5.5
2022-12-29T12:17:52.556Z,5.1
2022-12-29T12:18:39.389Z,5.1
2022-12-29T12:19:43.534Z,5.6
2022-12-29T12:20:51.953Z,5.0
2022-12-29T12:21:45.378Z,6.0
2022-12-29T12:22:36.737Z,5.5
2022-12-29T12:23:45.139Z,5.4
2022-12-29T12:24:39.210Z,5.8
2022-12-29T12:25:37.295Z,5.9
2022-12-29T12:26:44.582Z,4.8
2022-12-29T12:27:38.775Z,5.6
2022-12-29T12:28:42.091Z,5.3
2022-12-29T12:29:39.211Z,4.7
2022-12-29T12:30:37.877Z,3.9
2022-12-29T12:31:44.573Z,5.5
2022-12-29T12:32:39.503Z,5.1
2022-12-29T12:33:39.022Z,5.3
2022-12-29T12:34:37.389Z,5.4
2022-12-29T12:35:52.129Z,5.8
2022-12-29T12:36:41.670Z,5.8
2022-12-29T12:37:45.121Z,4.7
2022-12-29T12:38:48.136Z,6.4
2022-12-29T12:39:51.122Z,5.6
2022-12-29T12:40:44.673Z,5.2
2022-12-29T12:41:38.911Z,5.0
2022-12-29T12:42:45.122Z,5.1
2022-12-29T12:43:39.174Z,5.7
2022-12-29T12:44:39.165Z,6.1
2022-12-29T12:45:50.603Z,5.7
2022-12-29T12:46:38.933Z,5.4
2022-12-29T12:47:45.097Z,4.7
2022-12-29T12:48:39.320Z,5.2
2022-12-29T12:49:39.232Z,4.9
2022-12-29T12:50:38.996Z,5.2
2022-12-29T12:51:38.711Z,4.9
2022-12-29T12:52:54.212Z,4.3
2022-12-29T12:53:45.134Z,4.2
2022-12-29T12:54:57.130Z,5.2
2022-12-29T12:55:39.397Z,4.7
2022-12-29T12:56:42.148Z,5.2
2022-12-29T12:57:52.062Z,5.4
2022-12-29T12:58:44.589Z,5.6
2022-12-29T12:59:42.093Z,4.9
2022-12-29T13:00:39.407Z,4.5
2022-12-29T13:01:48.332Z,4.6
2022-12-29T13:02:41.791Z,5.3
2022-12-29T13:03:50.719Z,5.0
2022-12-29T13:04:45.166Z,5.4
2022-12-29T13:05:54.138Z,5.2
2022-12-29T13:06:39.217Z,4.7
2022-12-29T13:07:52.069Z,4.9
2022-12-29T13:08:52.063Z,5.4
2022-12-29T13:09:39.549Z,4.7
2022-12-29T13:10:39.022Z,5.0
2022-12-29T13:11:42.152Z,4.8
2022-12-29T13:12:44.644Z,3.9
2022-12-29T13:13:47.969Z,5.2
2022-12-29T13:14:42.121Z,5.0
2022-12-29T13:15:45.171Z,5.6
2022-12-29T13:16:42.149Z,5.5
2022-12-29T13:17:39.035Z,4.5
2022-12-29T13:18:37.393Z,5.1
2022-12-29T13:19:37.323Z,5.0
2022-12-29T13:20:39.354Z,4.7
2022-12-29T13:22:01.905Z,4.5
2022-12-29T13:22:45.032Z,4.4
2022-12-29T13:23:41.639Z,5.0
2022-12-29T13:24:42.141Z,3.9
2022-12-29T13:25:50.446Z,4.6
2022-12-29T13:26:37.607Z,5.3
2022-12-29T13:27:47.689Z,5.1
2022-12-29T13:28:39.643Z,5.0
2022-12-29T13:29:42.116Z,5.4
2022-12-29T13:30:37.942Z,4.4
2022-12-29T13:31:42.180Z,5.0
2022-12-29T13:32:38.961Z,4.8
2022-12-29T13:33:52.052Z,3.9
2022-12-29T13:34:42.172Z,5.6
2022-12-29T13:35:39.309Z,4.4
2022-12-29T13:36:37.116Z,4.7
2022-12-29T13:37:36.184Z,4.5
2022-12-29T13:38:37.951Z,5.6
2022-12-29T13:39:37.760Z,5.2
2022-12-29T13:40:36.496Z,4.5
2022-12-29T13:41:37.637Z,5.4
2022-12-29T13:42:34.431Z,5.1
2022-12-29T13:43:36.083Z,4.2
2022-12-29T13:44:39.418Z,4.6
2022-12-29T13:45:34.925Z,5.2
2022-12-29T13:46:39.104Z,4.2